Domov               UVHVVR             MKGP            O straneh              
ZDRAVSTVENO VARSTVO RASTLIN
  MREŽA AGROMET. POSTAJ
 ► PROGNOSTIČNA OBVESTILA
AGROMETEOROLOŠKI PODATKI -
ARSO
OBVLADOVANJE TVEGANJ ZARADI
NEUGODNIH VREMENSKIH RAZMER
  ► NARAVNE NESREČE
  ► SUŠA/MOČA
  ► NAMAKANJE
  ► ŽLED (gozdarstvo)
KARTOGRAFSKI PRIKAZI
SPLETNE POVEZAVE
PROJEKTI IN PUBLIKACIJE

AGROMETEOROLOŠKA MREŽA: VREMENSKE POSTAJE IN FENOLOŠKA OPAZOVANJA

Pregled podatkov za lokacijo Rodine pri Trebnjem APS, meteorološka postaja 49195

Pregled senzorjev na lokaciji

ID Ime Zadnja
vrednost
Datum
zadnje
spremembe
Tip
senzorja
3720 Temperatura 2 m ( °C) 16,84 °C 26.6.2017 00:00 50YA
3721 Relativna vlaga 2 m (% RH) 99,88 % RH 26.6.2017 00:00 50YA
3724 Temperatura tal ( °C) 21,88 °C 26.6.2017 00:00 99TG411E
3725 Hitrost vetra (km/h) 0,05 km/h 26.6.2017 00:00 566.2S-176 (200km/h)
3726 Smer vetra (°) 16,11 ° 26.6.2017 00:00 566.2S-130
3727 Padavine 0.2 mm (mm) 0 mm 26.6.2017 00:00 Rain-O-Matic
3769 Sončno sevanje (W/m2) 0,55 W/m2 26.6.2017 00:00 Pyranometer SP-Lite
3770 Omočenost lista (U) 10 U 26.6.2017 00:00 A730WET

Pregled podatkov zadnjih 24 ur

Zap.
št.
Datum in čas Rodine pri Trebnjem APS
Hitrost
vetra
Omočenost
lista
Padavine
0.2
mm
Relativna
vlaga
2
m
Smer
vetra
Sončno
sevanje
Temperatura
2
m
Temperatura
tal
0 25.6.2017 23:00 0,05 10 0 99,88 16,11 0,55 16,84 21,88
1 25.6.2017 22:30 0,05 10 0 99,77 91,16 0,55 16,71 21,91
2 25.6.2017 22:00 0,22 10 0 99,73 17,91 0,55 17,17 22,01
3 25.6.2017 21:30 1,78 5 0 99,57 304,64 0,58 17,05 22,03
4 25.6.2017 21:00 0,04 1 0 99,35 42,46 0,55 17,06 22,09
5 25.6.2017 20:30 0,36 0 0 99,14 44,2 1,28 17,42 22,31
6 25.6.2017 20:00 1,83 0 0 99,05 352,75 9,25 17,96 22,52
7 25.6.2017 19:30 2,31 2 0 98,99 311,32 55,21 18,2 23,12
8 25.6.2017 19:00 2,87 9 0,8 98,92 56,45 26,7 17,76 24,27
9 25.6.2017 18:30 5,27 10 1,6 98,61 284,95 5,13 17,55 24,39
10 25.6.2017 18:00 3,86 10 2,2 97,76 271,77 1,74 17,43 24,5
11 25.6.2017 17:30 5,8 10 15,8 90,01 350,28 1,13 19,43 24,64
12 25.6.2017 17:00 1,16 1 0 68,08 286,78 23,44 24,24 24,76
13 25.6.2017 16:30 3,95 0 0 62,63 261,17 146,36 25,63 24,88
14 25.6.2017 16:00 1,95 0 0 57,86 79,64 380,53 26,65 24,95
15 25.6.2017 15:30 2,23 0 0 58,14 279,1 545,17 26,94 24,94
16 25.6.2017 15:00 2,08 0 0 61,51 27,85 395,24 25,79 24,83
17 25.6.2017 14:30 2,67 0 0 61,45 318,54 424,14 25,54 24,78
18 25.6.2017 14:00 3,77 0 0 64,55 325,17 369,76 24,41 24,64
19 25.6.2017 13:30 4,14 2 0 72,07 241,44 299,11 22,98 24,43
20 25.6.2017 13:00 6,65 10 0 76,03 301,06 112,79 22,63 24,35
21 25.6.2017 12:30 6,63 0 0 70,33 317,54 47,82 26,12 24,57
22 25.6.2017 12:00 5,45 0 0 63 131,98 241,52 27,64 24,61
23 25.6.2017 11:30 8,12 0 0 62,51 146,41 412,3 27,64 24,6
24 25.6.2017 11:00 6,03 0 0 61,69 139,29 345,37 27,71 24,56
25 25.6.2017 10:30 6,02 0 0 62,95 76,58 355,32 27,46 24,54
26 25.6.2017 10:00 7,09 0 0 61,37 150,06 479,5 27,73 24,53
27 25.6.2017 09:30 5,49 0 0 63,9 57,63 412,39 26,95 24,5
28 25.6.2017 09:00 4,38 0 0 70,94 19,8 352,76 26,07 24,44
29 25.6.2017 08:30 0,53 0 0 70,66 47,56 223,54 25,71 24,42
30 25.6.2017 08:00 1,66 0 0 73,26 276,61 311,25 24,93 24,43
31 25.6.2017 07:30 1,45 0 0 76,82 137,29 314,4 24,26 24,34
32 25.6.2017 07:00 0,05 10 0 84,66 323,24 236,3 23,25 24,32
33 25.6.2017 06:30 0,18 10 0 94,07 211,17 215,67 21,17 24,26
34 25.6.2017 06:00 0,05 10 0 99,1 353,66 70,62 19,34 24,17
35 25.6.2017 05:30 0,05 10 0 99,06 225,55 27,59 18,97 24,18
36 25.6.2017 05:00 0,05 10 0 98,75 349,41 14,25 18,8 24,25
37 25.6.2017 04:30 0,05 10 0 98,35 68,03 3,23 18,97 24,31
38 25.6.2017 04:00 0,05 10 0 98,08 283,49 0,64 19,25 24,37
39 25.6.2017 03:30 0,05 10 0 97,6 40,73 0,58 19,58 24,45
40 25.6.2017 03:00 0,05 10 0 96,92 85,01 0,58 19,84 24,52
41 25.6.2017 02:30 0,84 10 0 96,44 302,97 0,52 20,45 24,55
42 25.6.2017 02:00 0,05 10 0 96,97 340,03 0,52 20,29 24,64
43 25.6.2017 01:30 0,16 10 0 97,7 29,71 0,52 20,33 24,71
44 25.6.2017 01:00 0,05 10 0 97,32 140,33 0,58 20,47 24,77
45 25.6.2017 00:30 0,18 10 0 97 251,57 0,52 20,56 24,81
© 2011 Ministrstvo za kmetijstvo, gozdarstvo in prehrano. Vse pravice pridržane.